Time,TemperatureF,DewpointF,PressureIn,WindDirection,WindDirectionDegrees,WindSpeedMPH,WindSpeedGustMPH,Humidity,HourlyPrecipIn,Conditions,Clouds,dailyrainin,SoftwareType,DateUTC
2013-03-02 05:33:00,27.0,23.0,-100.00,NNW,335,0.0,3.0,85,0.00,,,0.01,,2013-03-02 12:33:00,
2013-03-02 05:43:00,27.0,23.0,-100.00,NNW,335,0.0,3.0,85,0.00,,,0.01,,2013-03-02 12:43:00,
2013-03-02 05:53:00,27.0,23.0,-100.00,NNW,335,4.0,6.0,85,0.00,,,0.01,,2013-03-02 12:53:00,
2013-03-02 06:01:00,26.0,22.0,-100.00,NNW,336,0.0,3.0,86,0.00,,,0.01,,2013-03-02 13:01:00,
2013-03-02 06:11:00,26.0,22.0,-100.00,NNW,336,0.0,3.0,86,0.00,,,0.01,,2013-03-02 13:11:00,
2013-03-02 06:21:00,26.0,23.0,-100.00,NNW,330,1.0,6.0,87,0.00,,,0.01,,2013-03-02 13:21:00,
2013-03-02 06:31:00,27.0,23.0,-100.00,NNE,14,2.0,6.0,86,0.00,,,0.01,,2013-03-02 13:31:00,
2013-03-02 06:41:00,27.0,23.0,-100.00,NNE,14,2.0,6.0,86,0.00,,,0.01,,2013-03-02 13:41:00,
2013-03-02 06:52:00,26.0,23.0,-100.00,North,4,0.0,4.0,87,0.00,,,0.01,,2013-03-02 13:52:00,
2013-03-02 07:01:00,26.0,23.0,-100.00,NE,37,1.0,4.0,87,0.00,,,0.01,,2013-03-02 14:01:00,
2013-03-02 07:11:00,26.0,23.0,-100.00,NE,37,1.0,4.0,87,0.00,,,0.01,,2013-03-02 14:11:00,
2013-03-02 07:21:00,26.0,22.0,-100.00,North,10,0.0,5.0,86,0.00,,,0.01,,2013-03-02 14:21:00,
2013-03-02 07:31:00,25.0,21.0,-100.00,NNW,335,0.0,3.0,86,0.00,,,0.01,,2013-03-02 14:31:00,
2013-03-02 07:41:00,25.0,21.0,-100.00,NNW,335,0.0,3.0,86,0.00,,,0.01,,2013-03-02 14:41:00,
2013-03-02 07:52:00,25.0,22.0,-100.00,NNW,335,1.0,3.0,87,0.00,,,0.01,,2013-03-02 14:52:00,
2013-03-02 08:01:00,25.0,22.0,-100.00,NNW,335,0.0,2.0,87,0.00,,,0.01,,2013-03-02 15:01:00,
2013-03-02 08:11:00,25.0,22.0,-100.00,NNW,335,0.0,2.0,87,0.00,,,0.01,,2013-03-02 15:11:00,
2013-03-02 08:21:00,26.0,22.0,-100.00,NNW,343,1.0,3.0,86,0.00,,,0.01,,2013-03-02 15:21:00,
2013-03-02 08:31:00,26.0,22.0,-100.00,NNW,343,1.0,2.0,85,0.00,,,0.01,,2013-03-02 15:31:00,
2013-03-02 08:41:00,26.0,22.0,-100.00,NNW,343,1.0,2.0,85,0.00,,,0.01,,2013-03-02 15:41:00,
2013-03-02 08:52:00,27.0,23.0,-100.00,NE,45,1.0,3.0,84,0.00,,,0.01,,2013-03-02 15:52:00,
2013-03-02 09:01:00,28.0,23.0,-100.00,NW,312,1.0,4.0,82,0.00,,,0.01,,2013-03-02 16:01:00,
2013-03-02 09:11:00,28.0,23.0,-100.00,NW,312,1.0,4.0,82,0.00,,,0.01,,2013-03-02 16:11:00,
2013-03-02 09:21:00,28.0,23.0,-100.00,NNW,337,1.0,3.0,81,0.00,,,0.01,,2013-03-02 16:21:00,
2013-03-02 09:31:00,29.0,23.0,-100.00,NW,323,2.0,4.0,79,0.00,,,0.01,,2013-03-02 16:31:00,
2013-03-02 09:41:00,29.0,23.0,-100.00,NW,323,2.0,4.0,79,0.00,,,0.01,,2013-03-02 16:41:00,
2013-03-02 09:52:00,30.0,25.0,-100.00,North,350,2.0,5.0,80,0.00,,,0.01,,2013-03-02 16:52:00,
2013-03-02 10:01:00,32.0,26.0,-100.00,East,88,2.0,5.0,77,0.00,,,0.01,,2013-03-02 17:01:00,
2013-03-02 10:11:00,32.0,26.0,-100.00,East,88,2.0,5.0,77,0.00,,,0.01,,2013-03-02 17:11:00,
2013-03-02 10:21:00,33.0,25.0,-100.00,NW,318,2.0,3.0,73,0.00,,,0.01,,2013-03-02 17:21:00,
2013-03-02 10:31:00,34.0,27.0,-100.00,NW,319,1.0,3.0,74,0.00,,,0.01,,2013-03-02 17:31:00,
2013-03-02 10:41:00,34.0,27.0,-100.00,NW,319,1.0,3.0,74,0.00,,,0.01,,2013-03-02 17:41:00,
2013-03-02 10:52:00,35.0,27.0,-100.00,NW,314,2.0,4.0,71,0.00,,,0.01,,2013-03-02 17:52:00,
2013-03-02 11:01:00,36.0,27.0,-100.00,NW,312,2.0,4.0,70,0.00,,,0.01,,2013-03-02 18:01:00,
2013-03-02 11:11:00,36.0,27.0,-100.00,NW,312,2.0,4.0,70,0.00,,,0.01,,2013-03-02 18:11:00,
2013-03-02 11:21:00,36.0,27.0,-100.00,NW,320,2.0,4.0,70,0.00,,,0.01,,2013-03-02 18:21:00,
2013-03-02 11:31:00,37.0,28.0,-100.00,NW,319,1.0,3.0,70,0.00,,,0.01,,2013-03-02 18:31:00,
2013-03-02 11:41:00,37.0,28.0,-100.00,NW,319,1.0,3.0,70,0.00,,,0.01,,2013-03-02 18:41:00,
2013-03-02 11:52:00,39.0,29.0,-100.00,WSW,239,1.0,4.0,67,0.00,,,0.01,,2013-03-02 18:52:00,
2013-03-02 12:01:00,39.0,28.0,-100.00,South,187,1.0,4.0,65,0.00,,,0.01,,2013-03-02 19:01:00,
2013-03-02 12:11:00,39.0,28.0,-100.00,South,187,1.0,4.0,65,0.00,,,0.01,,2013-03-02 19:11:00,
2013-03-02 12:21:00,40.0,28.0,-100.00,North,350,1.0,2.0,63,0.00,,,0.00,,2013-03-02 19:21:00,
2013-03-02 12:31:00,40.0,28.0,-100.00,NW,318,3.0,4.0,63,0.00,,,0.00,,2013-03-02 19:31:00,
2013-03-02 12:42:00,40.0,28.0,-100.00,NW,318,3.0,4.0,63,0.00,,,0.00,,2013-03-02 19:42:00,
2013-03-02 12:52:00,41.0,29.0,-100.00,West,281,2.0,4.0,63,0.00,,,0.00,,2013-03-02 19:52:00,
2013-03-02 13:01:00,41.0,29.0,-100.00,WSW,241,4.0,6.0,62,0.00,,,0.00,,2013-03-02 20:01:00,
2013-03-02 13:11:00,41.0,29.0,-100.00,WSW,241,4.0,6.0,62,0.00,,,0.00,,2013-03-02 20:11:00,
2013-03-02 13:21:00,42.0,29.0,-100.00,West,261,3.0,7.0,60,0.00,,,0.00,,2013-03-02 20:21:00,
2013-03-02 13:31:00,43.0,29.0,-100.00,West,264,2.0,5.0,58,0.00,,,0.00,,2013-03-02 20:31:00,
2013-03-02 13:41:00,43.0,29.0,-100.00,West,264,2.0,5.0,58,0.00,,,0.00,,2013-03-02 20:41:00,
2013-03-02 13:52:00,44.0,30.0,-100.00,SSW,192,1.0,5.0,57,0.00,,,0.00,,2013-03-02 20:52:00,
2013-03-02 14:02:00,44.0,30.0,-100.00,South,186,2.0,6.0,57,0.00,,,0.00,,2013-03-02 21:02:00,
2013-03-02 14:11:00,44.0,30.0,-100.00,South,186,2.0,6.0,57,0.00,,,0.00,,2013-03-02 21:11:00,
2013-03-02 14:21:00,46.0,29.0,-100.00,WSW,249,2.0,6.0,52,0.00,,,0.00,,2013-03-02 21:21:00,
2013-03-02 14:31:00,47.0,30.0,-100.00,SW,233,1.0,6.0,52,0.00,,,0.00,,2013-03-02 21:31:00,
2013-03-02 14:41:00,47.0,30.0,-100.00,SW,233,1.0,6.0,52,0.00,,,0.00,,2013-03-02 21:41:00,
2013-03-02 14:52:00,46.0,29.0,-100.00,SSW,194,3.0,6.0,52,0.00,,,0.00,,2013-03-02 21:52:00,
2013-03-02 15:01:00,47.0,30.0,-100.00,South,187,0.0,5.0,51,0.00,,,0.00,,2013-03-02 22:01:00,
2013-03-02 15:11:00,47.0,30.0,-100.00,South,187,0.0,5.0,51,0.00,,,0.00,,2013-03-02 22:11:00,
2013-03-02 15:21:00,47.0,30.0,-100.00,WNW,283,2.0,7.0,51,0.00,,,0.00,,2013-03-02 22:21:00,
2013-03-02 15:31:00,46.0,29.0,-100.00,WSW,237,1.0,2.0,51,0.00,,,0.00,,2013-03-02 22:31:00,
2013-03-02 15:41:00,46.0,29.0,-100.00,WSW,237,1.0,2.0,51,0.00,,,0.00,,2013-03-02 22:41:00,
2013-03-02 15:52:00,47.0,29.0,-100.00,SSW,193,1.0,5.0,50,0.00,,,0.00,,2013-03-02 22:52:00,
2013-03-02 16:01:00,47.0,29.0,-100.00,SSW,199,1.0,5.0,49,0.00,,,0.00,,2013-03-02 23:01:00,
2013-03-02 16:11:00,47.0,28.0,-100.00,SSW,199,1.0,4.0,48,0.00,,,0.00,,2013-03-02 23:11:00,
2013-03-02 16:21:00,47.0,28.0,-100.00,SSW,199,1.0,4.0,48,0.00,,,0.00,,2013-03-02 23:21:00,
2013-03-02 16:31:00,47.0,28.0,-100.00,SSW,199,0.0,3.0,48,0.00,,,0.00,,2013-03-02 23:31:00,
2013-03-02 16:41:00,47.0,28.0,-100.00,SSW,199,0.0,3.0,48,0.00,,,0.00,,2013-03-02 23:41:00,
2013-03-02 16:52:00,46.0,28.0,-100.00,SSW,199,0.0,3.0,50,0.00,,,0.00,,2013-03-02 23:52:00,
2013-03-02 17:02:00,45.0,30.0,-100.00,WNW,287,2.0,4.0,55,0.00,,,0.00,,2013-03-03 00:02:00,
2013-03-02 17:11:00,45.0,30.0,-100.00,WNW,287,2.0,4.0,55,0.00,,,0.00,,2013-03-03 00:11:00,
2013-03-02 17:22:00,43.0,30.0,-100.00,WNW,287,1.0,3.0,59,0.00,,,0.00,,2013-03-03 00:22:00,
2013-03-02 17:31:00,42.0,29.0,-100.00,WNW,287,0.0,1.0,60,0.00,,,0.00,,2013-03-03 00:31:00,
2013-03-02 17:42:00,42.0,29.0,-100.00,WNW,287,0.0,1.0,60,0.00,,,0.00,,2013-03-03 00:42:00,
2013-03-02 17:52:00,41.0,29.0,-100.00,WNW,287,0.0,0.0,63,0.00,,,0.00,,2013-03-03 00:52:00,
2013-03-02 18:01:00,41.0,29.0,-100.00,WNW,287,0.0,0.0,63,0.00,,,0.00,,2013-03-03 01:01:00,
2013-03-02 18:11:00,41.0,29.0,-100.00,WNW,287,0.0,0.0,63,0.00,,,0.00,,2013-03-03 01:11:00,
2013-03-02 18:21:00,40.0,29.0,-100.00,WNW,287,0.0,2.0,64,0.00,,,0.00,,2013-03-03 01:21:00,
2013-03-02 18:31:00,40.0,26.0,-100.00,SW,221,1.0,6.0,58,0.00,,,0.00,,2013-03-03 01:31:00,
2013-03-02 18:41:00,40.0,26.0,-100.00,SW,221,1.0,6.0,58,0.00,,,0.00,,2013-03-03 01:41:00,
2013-03-02 18:52:00,42.0,27.0,-100.00,WSW,238,1.0,6.0,54,0.00,,,0.00,,2013-03-03 01:52:00,
2013-03-02 19:01:00,41.0,26.0,-100.00,SSW,204,1.0,4.0,55,0.00,,,0.00,,2013-03-03 02:01:00,
2013-03-02 19:11:00,41.0,26.0,-100.00,SSW,204,1.0,4.0,55,0.00,,,0.00,,2013-03-03 02:11:00,
2013-03-02 19:21:00,41.0,27.0,-100.00,SSW,199,1.0,5.0,57,0.00,,,0.00,,2013-03-03 02:21:00,
2013-03-02 19:31:00,40.0,26.0,-100.00,SW,224,1.0,7.0,57,0.00,,,0.00,,2013-03-03 02:31:00,
2013-03-02 19:41:00,40.0,26.0,-100.00,SW,224,1.0,7.0,57,0.00,,,0.00,,2013-03-03 02:41:00,
2013-03-02 19:52:00,40.0,27.0,-100.00,SW,214,1.0,4.0,59,0.00,,,0.00,,2013-03-03 02:52:00,
2013-03-02 20:01:00,39.0,26.0,-100.00,SSE,166,1.0,4.0,59,0.00,,,0.00,,2013-03-03 03:01:00,
2013-03-02 20:11:00,39.0,26.0,-100.00,SSE,166,1.0,4.0,59,0.00,,,0.00,,2013-03-03 03:11:00,
2013-03-02 20:21:00,40.0,26.0,-100.00,SW,219,3.0,8.0,56,0.00,,,0.00,,2013-03-03 03:21:00,
2013-03-02 20:31:00,41.0,26.0,-100.00,South,183,1.0,4.0,55,0.00,,,0.00,,2013-03-03 03:31:00,
2013-03-02 20:41:00,41.0,26.0,-100.00,South,183,1.0,4.0,55,0.00,,,0.00,,2013-03-03 03:41:00,
2013-03-02 20:52:00,40.0,26.0,-100.00,SSE,160,1.0,3.0,56,0.00,,,0.00,,2013-03-03 03:52:00,
2013-03-02 21:01:00,39.0,25.0,-100.00,South,173,2.0,3.0,58,0.00,,,0.00,,2013-03-03 04:01:00,
2013-03-02 21:11:00,39.0,25.0,-100.00,South,173,2.0,3.0,58,0.00,,,0.00,,2013-03-03 04:11:00,
2013-03-02 21:21:00,38.0,26.0,-100.00,South,173,0.0,2.0,62,0.00,,,0.00,,2013-03-03 04:21:00,
2013-03-02 21:31:00,37.0,26.0,-100.00,SW,228,0.0,4.0,63,0.00,,,0.00,,2013-03-03 04:31:00,
2013-03-02 21:41:00,37.0,26.0,-100.00,SW,228,0.0,4.0,63,0.00,,,0.00,,2013-03-03 04:41:00,
2013-03-02 21:52:00,37.0,26.0,-100.00,SSE,158,1.0,3.0,64,0.00,,,0.00,,2013-03-03 04:52:00,
2013-03-02 22:01:00,38.0,26.0,-100.00,South,181,1.0,7.0,62,0.00,,,0.00,,2013-03-03 05:01:00,
2013-03-02 22:11:00,38.0,26.0,-100.00,South,181,1.0,7.0,62,0.00,,,0.00,,2013-03-03 05:11:00,
2013-03-02 22:21:00,39.0,26.0,-100.00,SE,137,2.0,7.0,60,0.00,,,0.00,,2013-03-03 05:21:00,
2013-03-02 22:32:00,39.0,26.0,-100.00,South,184,1.0,10.0,60,0.00,,,0.00,,2013-03-03 05:32:00,
2013-03-02 22:42:00,39.0,26.0,-100.00,South,184,1.0,10.0,60,0.00,,,0.00,,2013-03-03 05:42:00,
2013-03-02 22:52:00,39.0,26.0,-100.00,South,170,1.0,6.0,60,0.00,,,0.00,,2013-03-03 05:52:00,
2013-03-02 23:01:00,39.0,26.0,-100.00,WSW,240,2.0,5.0,60,0.00,,,0.00,,2013-03-03 06:01:00,
2013-03-02 23:11:00,39.0,26.0,-100.00,WSW,240,2.0,5.0,60,0.00,,,0.00,,2013-03-03 06:11:00,
2013-03-02 23:21:00,39.0,27.0,-100.00,SSE,160,1.0,4.0,61,0.00,,,0.00,,2013-03-03 06:21:00,
2013-03-02 23:31:00,39.0,27.0,-100.00,SE,143,0.0,6.0,62,0.00,,,0.00,,2013-03-03 06:31:00,
2013-03-02 23:42:00,39.0,27.0,-100.00,SE,143,0.0,6.0,62,0.00,,,0.00,,2013-03-03 06:42:00,
2013-03-02 23:52:00,38.0,27.0,-100.00,SSE,164,1.0,6.0,64,0.00,,,0.00,,2013-03-03 06:52:00,